sensor_id;sensor_type;location;lat;lon;timestamp;pressure;altitude;pressure_sealevel;temperature;humidity
46081;BME280;31821;51.880;-0.518;2022-08-18T00:00:50;100529.19;;;26.79;37.73
46081;BME280;31821;51.880;-0.518;2022-08-18T00:03:16;100555.75;;;26.93;37.75
46081;BME280;31821;51.880;-0.518;2022-08-18T00:05:43;100443.63;;;26.19;37.64
46081;BME280;31821;51.880;-0.518;2022-08-18T00:08:09;100585.97;;;27.07;37.80
46081;BME280;31821;51.880;-0.518;2022-08-18T00:10:34;100587.16;;;27.06;37.52
46081;BME280;31821;51.880;-0.518;2022-08-18T00:13:01;100588.81;;;27.03;37.81
46081;BME280;31821;51.880;-0.518;2022-08-18T00:15:26;100591.22;;;27.05;37.69
46081;BME280;31821;51.880;-0.518;2022-08-18T00:17:52;100523.28;;;26.56;37.81
46081;BME280;31821;51.880;-0.518;2022-08-18T00:20:21;100594.03;;;27.05;37.77
46081;BME280;31821;51.880;-0.518;2022-08-18T00:22:47;100594.88;;;27.05;37.95
46081;BME280;31821;51.880;-0.518;2022-08-18T00:25:16;100549.03;;;26.72;37.50
46081;BME280;31821;51.880;-0.518;2022-08-18T00:27:42;100497.56;;;26.39;38.07
46081;BME280;31821;51.880;-0.518;2022-08-18T00:30:13;100544.94;;;26.77;37.88
46081;BME280;31821;51.880;-0.518;2022-08-18T00:32:42;100584.81;;;27.01;37.97
46081;BME280;31821;51.880;-0.518;2022-08-18T00:35:11;100589.59;;;27.04;37.63
46081;BME280;31821;51.880;-0.518;2022-08-18T00:37:39;100606.94;;;27.09;37.72
46081;BME280;31821;51.880;-0.518;2022-08-18T00:40:06;100602.88;;;27.14;37.48
46081;BME280;31821;51.880;-0.518;2022-08-18T00:42:32;100563.91;;;26.84;37.75
46081;BME280;31821;51.880;-0.518;2022-08-18T00:45:01;100598.81;;;27.15;37.53
46081;BME280;31821;51.880;-0.518;2022-08-18T00:47:28;100583.56;;;27.02;37.45
46081;BME280;31821;51.880;-0.518;2022-08-18T00:49:54;100579.97;;;26.97;37.70
46081;BME280;31821;51.880;-0.518;2022-08-18T00:52:21;100544.19;;;26.69;37.47
46081;BME280;31821;51.880;-0.518;2022-08-18T00:54:48;100548.59;;;26.74;37.64
46081;BME280;31821;51.880;-0.518;2022-08-18T00:57:17;100552.25;;;26.78;37.40
46081;BME280;31821;51.880;-0.518;2022-08-18T00:59:51;100547.84;;;26.66;37.75
46081;BME280;31821;51.880;-0.518;2022-08-18T01:02:32;100577.66;;;26.81;37.58
46081;BME280;31821;51.880;-0.518;2022-08-18T01:05:08;100571.22;;;26.77;37.15
46081;BME280;31821;51.880;-0.518;2022-08-18T01:07:44;100617.94;;;27.00;37.35
46081;BME280;31821;51.880;-0.518;2022-08-18T01:10:11;100553.09;;;26.67;37.69
46081;BME280;31821;51.880;-0.518;2022-08-18T01:12:45;100586.91;;;26.89;37.67
46081;BME280;31821;51.880;-0.518;2022-08-18T01:15:12;100578.44;;;26.86;37.35
46081;BME280;31821;51.880;-0.518;2022-08-18T01:17:39;100610.63;;;27.06;37.35
46081;BME280;31821;51.880;-0.518;2022-08-18T01:20:32;100554.69;;;26.72;36.96
46081;BME280;31821;51.880;-0.518;2022-08-18T01:23:20;100607.81;;;27.06;37.36
46081;BME280;31821;51.880;-0.518;2022-08-18T01:25:47;100592.47;;;27.00;37.53
46081;BME280;31821;51.880;-0.518;2022-08-18T01:28:26;100607.31;;;27.15;37.44
46081;BME280;31821;51.880;-0.518;2022-08-18T01:30:54;100605.22;;;27.23;37.08
46081;BME280;31821;51.880;-0.518;2022-08-18T01:33:24;100593.97;;;27.12;37.16
46081;BME280;31821;51.880;-0.518;2022-08-18T01:35:52;100600.34;;;27.23;37.05
46081;BME280;31821;51.880;-0.518;2022-08-18T01:38:20;100573.41;;;27.08;36.67
46081;BME280;31821;51.880;-0.518;2022-08-18T01:40:47;100553.34;;;26.91;36.61
46081;BME280;31821;51.880;-0.518;2022-08-18T01:43:13;100595.81;;;27.37;36.44
46081;BME280;31821;51.880;-0.518;2022-08-18T01:45:40;100579.03;;;27.11;36.82
46081;BME280;31821;51.880;-0.518;2022-08-18T01:48:06;100571.03;;;27.06;36.87
46081;BME280;31821;51.880;-0.518;2022-08-18T01:50:32;100587.88;;;27.17;37.35
46081;BME280;31821;51.880;-0.518;2022-08-18T01:53:00;100587.50;;;27.15;37.07
46081;BME280;31821;51.880;-0.518;2022-08-18T01:55:25;100583.81;;;27.22;36.85
46081;BME280;31821;51.880;-0.518;2022-08-18T01:57:53;100557.41;;;26.90;37.23
46081;BME280;31821;51.880;-0.518;2022-08-18T02:00:19;100594.03;;;27.05;37.28
46081;BME280;31821;51.880;-0.518;2022-08-18T02:02:47;100553.84;;;26.75;37.09
46081;BME280;31821;51.880;-0.518;2022-08-18T02:05:17;100572.28;;;26.98;37.49
46081;BME280;31821;51.880;-0.518;2022-08-18T02:07:44;100567.78;;;27.04;36.94
46081;BME280;31821;51.880;-0.518;2022-08-18T02:10:09;100579.41;;;27.17;36.97
46081;BME280;31821;51.880;-0.518;2022-08-18T02:12:36;100568.13;;;27.13;37.04
46081;BME280;31821;51.880;-0.518;2022-08-18T02:15:03;100558.41;;;27.15;36.92
46081;BME280;31821;51.880;-0.518;2022-08-18T02:17:38;100572.06;;;27.23;37.12
46081;BME280;31821;51.880;-0.518;2022-08-18T02:20:06;100574.13;;;27.19;36.98
46081;BME280;31821;51.880;-0.518;2022-08-18T02:22:33;100578.94;;;27.22;36.77
46081;BME280;31821;51.880;-0.518;2022-08-18T02:24:58;100586.28;;;27.16;36.77
46081;BME280;31821;51.880;-0.518;2022-08-18T02:27:26;100586.75;;;27.11;36.63
46081;BME280;31821;51.880;-0.518;2022-08-18T02:29:52;100582.25;;;27.13;36.97
46081;BME280;31821;51.880;-0.518;2022-08-18T02:32:17;100549.28;;;26.96;36.77
46081;BME280;31821;51.880;-0.518;2022-08-18T02:34:43;100562.94;;;27.05;36.65
46081;BME280;31821;51.880;-0.518;2022-08-18T02:37:09;100545.25;;;26.93;36.87
46081;BME280;31821;51.880;-0.518;2022-08-18T02:39:36;100523.13;;;26.81;36.81
46081;BME280;31821;51.880;-0.518;2022-08-18T02:42:05;100569.31;;;27.16;36.95
46081;BME280;31821;51.880;-0.518;2022-08-18T02:44:31;100572.91;;;27.17;36.70
46081;BME280;31821;51.880;-0.518;2022-08-18T02:46:57;100540.72;;;27.03;36.47
46081;BME280;31821;51.880;-0.518;2022-08-18T02:49:23;100567.25;;;27.17;36.86
46081;BME280;31821;51.880;-0.518;2022-08-18T02:51:51;100548.34;;;27.10;36.45
46081;BME280;31821;51.880;-0.518;2022-08-18T02:54:18;100549.06;;;27.18;36.69
46081;BME280;31821;51.880;-0.518;2022-08-18T02:56:44;100506.50;;;26.87;36.75
46081;BME280;31821;51.880;-0.518;2022-08-18T02:59:14;100523.78;;;27.00;36.69
46081;BME280;31821;51.880;-0.518;2022-08-18T03:01:44;100557.56;;;27.18;36.89
46081;BME280;31821;51.880;-0.518;2022-08-18T03:04:12;100488.41;;;26.77;36.76
46081;BME280;31821;51.880;-0.518;2022-08-18T03:06:40;100560.00;;;27.19;36.74
46081;BME280;31821;51.880;-0.518;2022-08-18T03:09:09;100540.31;;;27.05;36.58
46081;BME280;31821;51.880;-0.518;2022-08-18T03:11:35;100482.38;;;26.71;37.03
46081;BME280;31821;51.880;-0.518;2022-08-18T03:14:03;100481.94;;;26.73;36.82
46081;BME280;31821;51.880;-0.518;2022-08-18T03:16:30;100545.91;;;27.08;36.42
46081;BME280;31821;51.880;-0.518;2022-08-18T03:18:58;100551.94;;;27.14;37.28
46081;BME280;31821;51.880;-0.518;2022-08-18T03:21:26;100510.16;;;26.87;37.03
46081;BME280;31821;51.880;-0.518;2022-08-18T03:23:54;100555.59;;;27.15;36.87
46081;BME280;31821;51.880;-0.518;2022-08-18T03:26:21;100547.47;;;27.17;36.81
46081;BME280;31821;51.880;-0.518;2022-08-18T03:28:49;100543.06;;;27.12;36.78
46081;BME280;31821;51.880;-0.518;2022-08-18T03:31:17;100545.03;;;27.19;36.63
46081;BME280;31821;51.880;-0.518;2022-08-18T03:33:44;100537.41;;;27.12;36.79
46081;BME280;31821;51.880;-0.518;2022-08-18T03:36:13;100541.41;;;27.18;36.69
46081;BME280;31821;51.880;-0.518;2022-08-18T03:38:40;100543.84;;;27.16;36.36
46081;BME280;31821;51.880;-0.518;2022-08-18T03:41:07;100542.97;;;27.23;36.63
46081;BME280;31821;51.880;-0.518;2022-08-18T03:43:33;100541.44;;;27.15;36.71
46081;BME280;31821;51.880;-0.518;2022-08-18T03:46:00;100502.84;;;26.90;36.50
46081;BME280;31821;51.880;-0.518;2022-08-18T03:48:26;100546.66;;;27.16;36.89
46081;BME280;31821;51.880;-0.518;2022-08-18T03:50:52;100510.53;;;26.89;36.49
46081;BME280;31821;51.880;-0.518;2022-08-18T03:53:17;100540.22;;;27.12;36.93
46081;BME280;31821;51.880;-0.518;2022-08-18T03:55:43;100482.78;;;26.73;36.81
46081;BME280;31821;51.880;-0.518;2022-08-18T03:58:09;100487.97;;;26.86;36.72
46081;BME280;31821;51.880;-0.518;2022-08-18T04:00:39;100508.88;;;26.95;36.69
46081;BME280;31821;51.880;-0.518;2022-08-18T04:03:05;100500.84;;;26.90;36.94
46081;BME280;31821;51.880;-0.518;2022-08-18T04:05:31;100492.00;;;26.81;36.40
46081;BME280;31821;51.880;-0.518;2022-08-18T04:08:00;100528.16;;;27.08;36.90
46081;BME280;31821;51.880;-0.518;2022-08-18T04:10:27;100396.38;;;26.19;36.79
46081;BME280;31821;51.880;-0.518;2022-08-18T04:12:52;100464.22;;;26.69;36.90
46081;BME280;31821;51.880;-0.518;2022-08-18T04:15:18;100454.66;;;26.55;37.06
46081;BME280;31821;51.880;-0.518;2022-08-18T04:17:43;100508.91;;;26.92;36.91
46081;BME280;31821;51.880;-0.518;2022-08-18T04:20:11;100535.00;;;27.10;36.87
46081;BME280;31821;51.880;-0.518;2022-08-18T04:22:38;100541.88;;;27.09;36.80
46081;BME280;31821;51.880;-0.518;2022-08-18T04:25:05;100541.88;;;27.09;36.90
46081;BME280;31821;51.880;-0.518;2022-08-18T04:27:34;100542.25;;;27.11;36.75
46081;BME280;31821;51.880;-0.518;2022-08-18T04:30:00;100534.69;;;27.01;36.81
46081;BME280;31821;51.880;-0.518;2022-08-18T04:32:25;100508.56;;;26.83;36.95
46081;BME280;31821;51.880;-0.518;2022-08-18T04:34:51;100532.72;;;26.94;36.95
46081;BME280;31821;51.880;-0.518;2022-08-18T04:37:16;100496.09;;;26.73;36.80
46081;BME280;31821;51.880;-0.518;2022-08-18T04:39:43;100540.72;;;27.03;37.00
46081;BME280;31821;51.880;-0.518;2022-08-18T04:42:08;100531.09;;;26.93;37.14
46081;BME280;31821;51.880;-0.518;2022-08-18T04:44:34;100470.38;;;26.56;37.12
46081;BME280;31821;51.880;-0.518;2022-08-18T04:47:02;100506.19;;;26.77;36.81
46081;BME280;31821;51.880;-0.518;2022-08-18T04:49:28;100542.78;;;26.99;36.67
46081;BME280;31821;51.880;-0.518;2022-08-18T04:51:56;100546.78;;;27.02;36.61
46081;BME280;31821;51.880;-0.518;2022-08-18T04:54:41;100486.47;;;26.66;37.00
46081;BME280;31821;51.880;-0.518;2022-08-18T04:57:16;100544.34;;;27.04;37.48
46081;BME280;31821;51.880;-0.518;2022-08-18T04:59:45;100433.78;;;26.38;36.94
46081;BME280;31821;51.880;-0.518;2022-08-18T05:02:12;100520.22;;;26.92;36.71
46081;BME280;31821;51.880;-0.518;2022-08-18T05:04:40;100484.03;;;26.69;36.76
46081;BME280;31821;51.880;-0.518;2022-08-18T05:07:08;100530.72;;;26.91;37.10
46081;BME280;31821;51.880;-0.518;2022-08-18T05:09:35;100501.31;;;26.81;36.86
46081;BME280;31821;51.880;-0.518;2022-08-18T05:12:03;100535.09;;;27.00;36.99
46081;BME280;31821;51.880;-0.518;2022-08-18T05:14:29;100495.34;;;26.69;36.94
46081;BME280;31821;51.880;-0.518;2022-08-18T05:16:59;100490.50;;;26.65;37.00
46081;BME280;31821;51.880;-0.518;2022-08-18T05:19:25;100518.28;;;26.81;37.44
46081;BME280;31821;51.880;-0.518;2022-08-18T05:21:51;100547.25;;;26.96;36.67
46081;BME280;31821;51.880;-0.518;2022-08-18T05:24:19;100557.38;;;26.94;37.09
46081;BME280;31821;51.880;-0.518;2022-08-18T05:26:48;100503.81;;;26.69;37.30
46081;BME280;31821;51.880;-0.518;2022-08-18T05:29:15;100513.84;;;26.77;37.13
46081;BME280;31821;51.880;-0.518;2022-08-18T05:31:41;100541.97;;;26.99;36.92
46081;BME280;31821;51.880;-0.518;2022-08-18T05:34:07;100513.84;;;26.77;36.95
46081;BME280;31821;51.880;-0.518;2022-08-18T05:44:25;100504.97;;;26.78;36.99
46081;BME280;31821;51.880;-0.518;2022-08-18T05:46:58;100507.44;;;26.69;37.27
46081;BME280;31821;51.880;-0.518;2022-08-18T05:49:26;100513.44;;;26.78;37.11
46081;BME280;31821;51.880;-0.518;2022-08-18T05:51:56;100490.06;;;26.67;37.05
46081;BME280;31821;51.880;-0.518;2022-08-18T05:54:24;100510.19;;;26.76;37.08
46081;BME280;31821;51.880;-0.518;2022-08-18T05:57:17;100522.25;;;26.88;37.09
46081;BME280;31821;51.880;-0.518;2022-08-18T05:59:44;100542.03;;;26.91;36.91
46081;BME280;31821;51.880;-0.518;2022-08-18T06:02:20;100546.03;;;26.97;36.90
46081;BME280;31821;51.880;-0.518;2022-08-18T06:04:52;100537.97;;;26.92;37.23
46081;BME280;31821;51.880;-0.518;2022-08-18T06:07:53;100540.81;;;26.92;37.22
46081;BME280;31821;51.880;-0.518;2022-08-18T06:10:21;100537.59;;;26.90;37.17
46081;BME280;31821;51.880;-0.518;2022-08-18T06:12:49;100523.91;;;26.85;37.25
46081;BME280;31821;51.880;-0.518;2022-08-18T06:25:40;100521.03;;;26.89;37.28
46081;BME280;31821;51.880;-0.518;2022-08-18T06:28:14;100518.25;;;26.85;37.24
46081;BME280;31821;51.880;-0.518;2022-08-18T06:36:31;100528.28;;;26.93;37.11
46081;BME280;31821;51.880;-0.518;2022-08-18T06:39:28;100518.22;;;26.89;37.28
46081;BME280;31821;51.880;-0.518;2022-08-18T06:41:55;100503.31;;;26.81;37.18
46081;BME280;31821;51.880;-0.518;2022-08-18T06:44:40;100523.81;;;26.96;37.23
46081;BME280;31821;51.880;-0.518;2022-08-18T06:49:44;100533.50;;;26.99;37.16
46081;BME280;31821;51.880;-0.518;2022-08-18T06:52:22;100469.94;;;26.61;37.10
46081;BME280;31821;51.880;-0.518;2022-08-18T06:54:48;100507.00;;;26.78;37.18
46081;BME280;31821;51.880;-0.518;2022-08-18T06:57:27;100530.66;;;26.99;37.04
46081;BME280;31821;51.880;-0.518;2022-08-18T06:59:55;100537.47;;;27.05;36.82
46081;BME280;31821;51.880;-0.518;2022-08-18T07:02:37;100482.81;;;26.70;37.23
46081;BME280;31821;51.880;-0.518;2022-08-18T07:05:07;100530.19;;;27.04;37.13
46081;BME280;31821;51.880;-0.518;2022-08-18T07:07:40;100519.41;;;26.91;36.91
46081;BME280;31821;51.880;-0.518;2022-08-18T07:10:29;100529.81;;;27.05;37.08
46081;BME280;31821;51.880;-0.518;2022-08-18T07:13:16;100497.69;;;26.77;37.14
46081;BME280;31821;51.880;-0.518;2022-08-18T07:15:42;100536.72;;;26.97;36.91
46081;BME280;31821;51.880;-0.518;2022-08-18T07:18:11;100478.00;;;26.63;37.27
46081;BME280;31821;51.880;-0.518;2022-08-18T07:20:49;100513.75;;;26.91;37.14
46081;BME280;31821;51.880;-0.518;2022-08-18T07:23:31;100536.31;;;26.99;37.05
46081;BME280;31821;51.880;-0.518;2022-08-18T07:26:10;100474.34;;;26.66;37.41
46081;BME280;31821;51.880;-0.518;2022-08-18T07:28:40;100492.88;;;26.74;37.11
46081;BME280;31821;51.880;-0.518;2022-08-18T07:34:27;100537.91;;;27.03;37.02
46081;BME280;31821;51.880;-0.518;2022-08-18T07:42:15;100546.34;;;27.07;37.66
46081;BME280;31821;51.880;-0.518;2022-08-18T07:44:48;100503.56;;;26.45;40.43
46081;BME280;31821;51.880;-0.518;2022-08-18T07:47:31;100547.47;;;26.64;41.23
46081;BME280;31821;51.880;-0.518;2022-08-18T07:50:00;100548.38;;;26.50;40.91
46081;BME280;31821;51.880;-0.518;2022-08-18T07:52:39;100500.56;;;26.03;42.63
46081;BME280;31821;51.880;-0.518;2022-08-18T07:55:29;100536.81;;;26.26;42.54
46081;BME280;31821;51.880;-0.518;2022-08-18T07:58:21;100557.41;;;26.19;43.65
46081;BME280;31821;51.880;-0.518;2022-08-18T08:03:58;100552.56;;;26.16;43.14
46081;BME280;31821;51.880;-0.518;2022-08-18T08:06:36;100535.25;;;26.11;43.66
46081;BME280;31821;51.880;-0.518;2022-08-18T08:09:11;100544.09;;;26.16;43.40
46081;BME280;31821;51.880;-0.518;2022-08-18T08:11:58;100549.38;;;26.11;43.81
46081;BME280;31821;51.880;-0.518;2022-08-18T08:14:41;100544.53;;;26.08;44.06
46081;BME280;31821;51.880;-0.518;2022-08-18T08:17:30;100547.34;;;26.15;43.76
46081;BME280;31821;51.880;-0.518;2022-08-18T08:20:23;100503.91;;;25.76;44.61
46081;BME280;31821;51.880;-0.518;2022-08-18T08:25:50;100530.44;;;26.04;44.03
46081;BME280;31821;51.880;-0.518;2022-08-18T08:28:37;100535.25;;;26.14;44.55
46081;BME280;31821;51.880;-0.518;2022-08-18T08:37:03;100519.50;;;26.17;43.85
46081;BME280;31821;51.880;-0.518;2022-08-18T08:39:47;100516.25;;;26.18;43.91
46081;BME280;31821;51.880;-0.518;2022-08-18T08:42:18;100540.34;;;26.41;43.73
46081;BME280;31821;51.880;-0.518;2022-08-18T08:44:55;100537.50;;;26.41;43.68
46081;BME280;31821;51.880;-0.518;2022-08-18T08:48:11;100497.75;;;26.10;44.18
46081;BME280;31821;51.880;-0.518;2022-08-18T08:50:39;100536.69;;;26.44;43.04
46081;BME280;31821;51.880;-0.518;2022-08-18T08:53:30;100533.03;;;26.47;43.40
46081;BME280;31821;51.880;-0.518;2022-08-18T08:56:06;100533.78;;;26.55;43.24
46081;BME280;31821;51.880;-0.518;2022-08-18T08:58:48;100464.13;;;26.27;42.94
46081;BME280;31821;51.880;-0.518;2022-08-18T09:16:20;100535.31;;;27.20;41.45
46081;BME280;31821;51.880;-0.518;2022-08-18T09:24:46;100479.91;;;26.77;40.96
46081;BME280;31821;51.880;-0.518;2022-08-18T09:29:53;100530.63;;;27.02;41.27
46081;BME280;31821;51.880;-0.518;2022-08-18T09:37:51;100528.94;;;27.08;41.06
46081;BME280;31821;51.880;-0.518;2022-08-18T09:40:45;100500.00;;;26.93;41.13
46081;BME280;31821;51.880;-0.518;2022-08-18T09:43:59;100531.75;;;27.12;40.24
46081;BME280;31821;51.880;-0.518;2022-08-18T09:51:58;100516.38;;;27.13;40.65
46081;BME280;31821;51.880;-0.518;2022-08-18T09:54:32;100526.78;;;27.23;40.53
46081;BME280;31821;51.880;-0.518;2022-08-18T10:07:50;100520.16;;;27.37;39.75
46081;BME280;31821;51.880;-0.518;2022-08-18T10:19:21;100421.16;;;26.99;39.51
46081;BME280;31821;51.880;-0.518;2022-08-18T10:24:21;100474.09;;;27.37;39.52
46081;BME280;31821;51.880;-0.518;2022-08-18T10:44:59;100470.84;;;27.77;38.22
46081;BME280;31821;51.880;-0.518;2022-08-18T10:47:29;100431.84;;;27.57;39.07
46081;BME280;31821;51.880;-0.518;2022-08-18T10:49:56;100465.91;;;27.81;38.80
46081;BME280;31821;51.880;-0.518;2022-08-18T10:58:08;100455.47;;;28.05;38.49
46081;BME280;31821;51.880;-0.518;2022-08-18T11:00:50;100459.94;;;28.02;38.49
46081;BME280;31821;51.880;-0.518;2022-08-18T11:06:05;100431.03;;;27.87;38.55
46081;BME280;31821;51.880;-0.518;2022-08-18T11:08:36;100459.88;;;28.10;38.46
46081;BME280;31821;51.880;-0.518;2022-08-18T11:11:07;100361.66;;;27.41;37.88
46081;BME280;31821;51.880;-0.518;2022-08-18T11:19:13;100446.03;;;28.15;38.39
46081;BME280;31821;51.880;-0.518;2022-08-18T11:21:43;100439.97;;;28.13;37.99
46081;BME280;31821;51.880;-0.518;2022-08-18T11:26:46;100412.84;;;28.16;37.50
46081;BME280;31821;51.880;-0.518;2022-08-18T11:29:25;100438.13;;;28.30;38.10
46081;BME280;31821;51.880;-0.518;2022-08-18T11:34:36;100386.66;;;28.08;37.52
46081;BME280;31821;51.880;-0.518;2022-08-18T11:39:50;100437.03;;;28.48;38.23
46081;BME280;31821;51.880;-0.518;2022-08-18T11:42:18;100386.97;;;28.14;38.02
46081;BME280;31821;51.880;-0.518;2022-08-18T11:44:45;100447.44;;;28.55;37.19
46081;BME280;31821;51.880;-0.518;2022-08-18T11:47:20;100379.56;;;28.20;37.52
46081;BME280;31821;51.880;-0.518;2022-08-18T11:50:12;100433.16;;;28.62;37.57
46081;BME280;31821;51.880;-0.518;2022-08-18T11:52:51;100438.00;;;28.61;37.08
46081;BME280;31821;51.880;-0.518;2022-08-18T11:55:28;100378.78;;;28.19;37.48
46081;BME280;31821;51.880;-0.518;2022-08-18T11:57:56;100387.91;;;28.31;37.43
46081;BME280;31821;51.880;-0.518;2022-08-18T12:00:53;100385.06;;;28.31;37.27
46081;BME280;31821;51.880;-0.518;2022-08-18T12:05:50;100438.69;;;28.45;37.25
46081;BME280;31821;51.880;-0.518;2022-08-18T12:08:27;100407.63;;;28.38;37.14
46081;BME280;31821;51.880;-0.518;2022-08-18T12:11:48;100436.78;;;28.62;36.54
46081;BME280;31821;51.880;-0.518;2022-08-18T12:13:59;100443.28;;;28.63;37.20
46081;BME280;31821;51.880;-0.518;2022-08-18T12:16:41;100441.66;;;28.62;36.70
46081;BME280;31821;51.880;-0.518;2022-08-18T12:19:10;100450.59;;;28.60;36.96
46081;BME280;31821;51.880;-0.518;2022-08-18T12:22:00;100445.34;;;28.59;36.80
46081;BME280;31821;51.880;-0.518;2022-08-18T12:24:30;100440.06;;;28.61;36.86
46081;BME280;31821;51.880;-0.518;2022-08-18T12:26:57;100448.19;;;28.59;36.43
46081;BME280;31821;51.880;-0.518;2022-08-18T12:29:24;100436.06;;;28.58;36.55
46081;BME280;31821;51.880;-0.518;2022-08-18T12:31:52;100336.66;;;27.94;36.58
46081;BME280;31821;51.880;-0.518;2022-08-18T12:34:20;100431.78;;;28.46;36.17
46081;BME280;31821;51.880;-0.518;2022-08-18T12:36:50;100438.94;;;28.55;36.96
46081;BME280;31821;51.880;-0.518;2022-08-18T12:39:16;100363.19;;;28.04;37.02
46081;BME280;31821;51.880;-0.518;2022-08-18T12:41:41;100405.22;;;28.36;36.81
46081;BME280;31821;51.880;-0.518;2022-08-18T12:44:07;100379.56;;;28.20;36.20
46081;BME280;31821;51.880;-0.518;2022-08-18T12:46:32;100376.72;;;28.20;36.59
46081;BME280;31821;51.880;-0.518;2022-08-18T12:48:58;100371.44;;;28.22;36.15
46081;BME280;31821;51.880;-0.518;2022-08-18T12:51:23;100372.59;;;28.25;36.83
46081;BME280;31821;51.880;-0.518;2022-08-18T12:53:49;100421.88;;;28.58;35.82
46081;BME280;31821;51.880;-0.518;2022-08-18T12:56:22;100422.22;;;28.60;36.29
46081;BME280;31821;51.880;-0.518;2022-08-18T12:58:48;100332.84;;;28.04;36.66
46081;BME280;31821;51.880;-0.518;2022-08-18T13:01:17;100417.31;;;28.64;36.21
46081;BME280;31821;51.880;-0.518;2022-08-18T13:03:44;100387.25;;;28.47;35.60
46081;BME280;31821;51.880;-0.518;2022-08-18T13:06:12;100367.50;;;28.40;36.46
46081;BME280;31821;51.880;-0.518;2022-08-18T13:08:38;100396.28;;;28.62;36.20
46081;BME280;31821;51.880;-0.518;2022-08-18T13:11:04;100392.88;;;28.74;36.08
46081;BME280;31821;51.880;-0.518;2022-08-18T13:13:37;100404.22;;;28.74;36.10
46081;BME280;31821;51.880;-0.518;2022-08-18T13:16:07;100380.00;;;28.66;35.98
46081;BME280;31821;51.880;-0.518;2022-08-18T13:18:37;100335.16;;;28.37;35.37
46081;BME280;31821;51.880;-0.518;2022-08-18T13:21:07;100386.00;;;28.72;35.46
46081;BME280;31821;51.880;-0.518;2022-08-18T13:23:33;100323.88;;;28.33;35.15
46081;BME280;31821;51.880;-0.518;2022-08-18T13:25:59;100313.16;;;28.21;35.20
46081;BME280;31821;51.880;-0.518;2022-08-18T13:28:26;100355.00;;;28.61;35.05
46081;BME280;31821;51.880;-0.518;2022-08-18T13:30:51;100364.97;;;28.69;35.33
46081;BME280;31821;51.880;-0.518;2022-08-18T13:33:18;100380.00;;;28.90;35.31
46081;BME280;31821;51.880;-0.518;2022-08-18T13:35:45;100378.34;;;28.92;35.11
46081;BME280;31821;51.880;-0.518;2022-08-18T13:38:16;100311.66;;;28.60;35.09
46081;BME280;31821;51.880;-0.518;2022-08-18T13:40:45;100321.53;;;28.52;35.12
46081;BME280;31821;51.880;-0.518;2022-08-18T13:43:13;100386.72;;;29.00;35.14
46081;BME280;31821;51.880;-0.518;2022-08-18T13:45:38;100360.53;;;28.92;34.08
46081;BME280;31821;51.880;-0.518;2022-08-18T13:48:04;100357.75;;;28.88;35.06
46081;BME280;31821;51.880;-0.518;2022-08-18T13:50:29;100326.81;;;28.74;34.77
46081;BME280;31821;51.880;-0.518;2022-08-18T13:52:56;100340.06;;;28.80;34.88
46081;BME280;31821;51.880;-0.518;2022-08-18T13:55:26;100338.84;;;28.81;34.85
46081;BME280;31821;51.880;-0.518;2022-08-18T13:57:53;100377.25;;;29.06;33.50
46081;BME280;31821;51.880;-0.518;2022-08-18T14:00:21;100317.63;;;28.66;34.26
46081;BME280;31821;51.880;-0.518;2022-08-18T14:02:48;100289.00;;;28.36;33.86
46081;BME280;31821;51.880;-0.518;2022-08-18T14:05:19;100370.41;;;29.04;33.26
46081;BME280;31821;51.880;-0.518;2022-08-18T14:07:45;100345.91;;;28.93;33.39
46081;BME280;31821;51.880;-0.518;2022-08-18T14:10:12;100349.66;;;28.87;33.91
46081;BME280;31821;51.880;-0.518;2022-08-18T14:12:38;100330.94;;;28.69;33.61
46081;BME280;31821;51.880;-0.518;2022-08-18T14:15:10;100361.75;;;28.91;33.63
46081;BME280;31821;51.880;-0.518;2022-08-18T14:17:37;100330.56;;;28.67;33.99
46081;BME280;31821;51.880;-0.518;2022-08-18T14:20:04;100338.53;;;28.76;33.46
46081;BME280;31821;51.880;-0.518;2022-08-18T14:22:50;100359.56;;;28.78;34.16
46081;BME280;31821;51.880;-0.518;2022-08-18T14:25:35;100340.13;;;28.53;34.05
46081;BME280;31821;51.880;-0.518;2022-08-18T14:28:19;100303.84;;;28.44;34.32
46081;BME280;31821;51.880;-0.518;2022-08-18T14:30:45;100301.16;;;28.37;34.01
46081;BME280;31821;51.880;-0.518;2022-08-18T14:33:11;100364.38;;;28.81;33.75
46081;BME280;31821;51.880;-0.518;2022-08-18T14:35:40;100332.72;;;28.59;32.83
46081;BME280;31821;51.880;-0.518;2022-08-18T14:38:06;100305.38;;;28.49;33.53
46081;BME280;31821;51.880;-0.518;2022-08-18T14:40:33;100347.91;;;28.73;32.58
46081;BME280;31821;51.880;-0.518;2022-08-18T14:42:59;100356.34;;;28.76;32.88
46081;BME280;31821;51.880;-0.518;2022-08-18T14:45:27;100353.47;;;28.56;32.93
46081;BME280;31821;51.880;-0.518;2022-08-18T14:47:54;100215.97;;;27.77;32.52
46081;BME280;31821;51.880;-0.518;2022-08-18T14:50:21;100369.22;;;28.81;32.82
46081;BME280;31821;51.880;-0.518;2022-08-18T14:52:48;100366.69;;;28.87;32.06
46081;BME280;31821;51.880;-0.518;2022-08-18T14:55:15;100379.16;;;28.93;32.34
46081;BME280;31821;51.880;-0.518;2022-08-18T14:57:41;100310.41;;;28.61;32.31
46081;BME280;31821;51.880;-0.518;2022-08-18T15:00:10;100272.78;;;28.37;31.92
46081;BME280;31821;51.880;-0.518;2022-08-18T15:02:38;100359.84;;;28.84;32.42
46081;BME280;31821;51.880;-0.518;2022-08-18T15:05:05;100373.66;;;28.82;32.46
46081;BME280;31821;51.880;-0.518;2022-08-18T15:07:31;100380.94;;;28.83;33.08
46081;BME280;31821;51.880;-0.518;2022-08-18T15:09:57;100251.03;;;28.10;33.07
46081;BME280;31821;51.880;-0.518;2022-08-18T15:12:24;100364.22;;;28.89;32.15
46081;BME280;31821;51.880;-0.518;2022-08-18T15:14:49;100303.34;;;28.49;31.62
46081;BME280;31821;51.880;-0.518;2022-08-18T15:17:15;100282.75;;;28.25;31.53
46081;BME280;31821;51.880;-0.518;2022-08-18T15:19:41;100339.69;;;28.78;32.76
46081;BME280;31821;51.880;-0.518;2022-08-18T15:22:08;100330.63;;;28.63;32.44
46081;BME280;31821;51.880;-0.518;2022-08-18T15:24:52;100346.03;;;28.86;31.95